Time;durP1;ratioP1;P1;durP2;ratioP2;P2;SDS_P1;SDS_P2;PMS_P1;PMS_P2;Temp;Humidity;BMP_temperature;BMP_pressure;BME280_temperature;BME280_humidity;BME280_pressure;Samples;Min_cycle;Max_cycle;Signal;HPM_P1;HPM_P2
2022/04/04 00:10:47;;;;;;;6.95;1.92;;;3.40;99.90;;;;;;4751461;30;20067;-92
2022/04/04 00:14:08;;;;;;;3.30;1.85;;;3.40;99.90;;;;;;4738640;30;20052;-92
2022/04/04 00:17:21;;;;;;;2.97;1.40;;;3.30;99.90;;;;;;4736135;30;20068;-93
2022/04/04 00:24:43;;;;;;;3.97;1.15;;;3.40;99.90;;;;;;4805665;29;20116;-92
2022/04/04 00:28:05;;;;;;;1.27;0.85;;;3.40;99.90;;;;;;4772296;30;20063;-92
2022/04/04 00:31:41;;;;;;;4.90;1.67;;;3.50;99.90;;;;;;4772726;29;20047;-93
2022/04/04 00:47:25;;;;;;;3.47;1.17;;;3.50;99.90;;;;;;4841335;29;20122;-92
2022/04/04 00:58:31;;;;;;;2.03;1.20;;;3.40;99.90;;;;;;4802811;29;20547;-94
2022/04/04 01:06:06;;;;;;;2.90;1.80;;;3.40;99.90;;;;;;4822936;29;20051;-94
2022/04/04 01:09:48;;;;;;;1.98;1.48;;;3.40;99.90;;;;;;4804397;29;20053;-92
2022/04/04 01:17:15;;;;;;;2.55;1.88;;;3.40;99.90;;;;;;4810631;29;20173;-93
2022/04/04 01:20:22;;;;;;;1.48;1.35;;;3.40;99.90;;;;;;4771196;29;20070;-92
2022/04/04 01:27:22;;;;;;;2.92;2.05;;;3.40;99.90;;;;;;4768454;30;20630;-92
2022/04/04 01:38:58;;;;;;;4.03;1.65;;;3.50;99.90;;;;;;4787062;30;20121;-92
2022/04/04 01:42:26;;;;;;;1.60;1.30;;;3.50;99.90;;;;;;4713193;30;20435;-92
2022/04/04 02:01:01;;;;;;;8.23;4.18;;;3.60;99.90;;;;;;4750689;30;20574;-93
2022/04/04 02:04:35;;;;;;;4.43;3.60;;;3.60;99.90;;;;;;4763444;30;20048;-92
2022/04/04 02:23:05;;;;;;;6.18;3.28;;;3.80;99.90;;;;;;4858733;29;20044;-94
2022/04/04 02:30:21;;;;;;;6.95;3.25;;;3.80;99.90;;;;;;4843372;29;20136;-93
2022/04/04 02:33:57;;;;;;;8.45;4.95;;;3.90;99.90;;;;;;4797789;29;20061;-92
2022/04/04 02:41:04;;;;;;;6.97;4.40;;;3.90;99.90;;;;;;4832780;29;20040;-93
2022/04/04 02:44:36;;;;;;;12.82;4.53;;;3.90;99.90;;;;;;4874491;29;20060;-93
2022/04/04 02:48:20;;;;;;;7.18;4.97;;;3.90;99.90;;;;;;4895581;29;20047;-96
2022/04/04 02:58:42;;;;;;;8.32;3.42;;;4.00;99.90;;;;;;4914017;29;20099;-92
2022/04/04 03:05:41;;;;;;;7.80;5.15;;;4.10;99.90;;;;;;4913318;29;20180;-93
2022/04/04 03:09:23;;;;;;;6.35;4.47;;;4.10;99.90;;;;;;4925731;29;20191;-93
2022/04/04 03:12:07;;;;;;;7.15;4.38;;;4.20;99.90;;;;;;4956300;28;20081;-92
2022/04/04 03:15:11;;;;;;;8.38;3.80;;;4.20;99.90;;;;;;4973710;28;20064;-92
2022/04/04 03:18:54;;;;;;;7.43;4.38;;;4.20;99.90;;;;;;4976559;28;20113;-96
2022/04/04 03:21:40;;;;;;;4.97;3.72;;;4.10;99.90;;;;;;4998210;28;20045;-92
2022/04/04 03:24:25;;;;;;;8.75;5.22;;;4.20;99.90;;;;;;4994238;28;20047;-92
2022/04/04 03:27:48;;;;;;;11.32;6.13;;;4.30;99.90;;;;;;4962248;28;20063;-93
2022/04/04 03:31:36;;;;;;;11.95;5.13;;;4.20;99.90;;;;;;4861102;29;20065;-92
2022/04/04 03:58:03;;;;;;;8.20;3.63;;;4.70;99.90;;;;;;4863203;29;20105;-94
2022/04/04 04:05:38;;;;;;;7.97;4.30;;;4.60;99.90;;;;;;4861478;29;20072;-96
2022/04/04 04:12:23;;;;;;;10.82;5.85;;;4.60;99.90;;;;;;4699658;30;20064;-94
2022/04/04 04:16:40;;;;;;;6.30;3.40;;;4.60;99.90;;;;;;4725258;30;20508;-94
2022/04/04 04:23:26;;;;;;;6.80;4.28;;;4.50;99.90;;;;;;4700762;30;20046;-93
2022/04/04 04:26:21;;;;;;;15.85;8.23;;;4.60;99.90;;;;;;4725625;30;20235;-92
2022/04/04 04:29:05;;;;;;;13.90;6.20;;;4.60;99.90;;;;;;4705097;30;20087;-94
2022/04/04 04:35:47;;;;;;;10.07;6.75;;;4.60;99.90;;;;;;4788332;29;20092;-94
2022/04/04 04:39:14;;;;;;;12.63;5.22;;;4.60;99.90;;;;;;4793959;29;20120;-94
2022/04/04 04:43:14;;;;;;;17.40;7.30;;;4.70;99.90;;;;;;4785540;29;20054;-95
2022/04/04 04:47:05;;;;;;;6.35;3.50;;;4.70;99.90;;;;;;4878942;29;20070;-93
2022/04/04 04:50:41;;;;;;;10.13;4.50;;;4.70;99.90;;;;;;4841809;29;20185;-94
2022/04/04 04:53:10;;;;;;;9.68;5.30;;;4.80;99.90;;;;;;4857204;29;20054;-92
2022/04/04 04:56:26;;;;;;;9.50;4.78;;;4.80;99.90;;;;;;4841889;29;20396;-94
2022/04/04 04:59:21;;;;;;;9.60;5.10;;;4.80;99.90;;;;;;4842465;29;20521;-91
2022/04/04 05:03:29;;;;;;;8.18;5.03;;;4.80;99.90;;;;;;4882789;29;20393;-95
2022/04/04 05:06:21;;;;;;;12.45;6.80;;;4.70;99.90;;;;;;4878820;29;20052;-94
2022/04/04 05:09:41;;;;;;;4.65;3.92;;;4.80;99.90;;;;;;4854471;29;20136;-93
2022/04/04 05:12:56;;;;;;;17.42;5.72;;;4.80;99.90;;;;;;4807404;29;20491;-94
2022/04/04 05:20:18;;;;;;;15.32;7.22;;;4.70;99.90;;;;;;4860382;29;20081;-95
2022/04/04 05:24:16;;;;;;;9.07;4.68;;;4.80;99.90;;;;;;4895691;29;20095;-96
2022/04/04 05:31:30;;;;;;;3.60;3.30;;;4.70;99.90;;;;;;4915758;29;20051;-95
2022/04/04 05:38:04;;;;;;;;;;;4.70;99.90;;;;;;4916334;29;20068;-93
2022/04/04 05:45:25;;;;;;;12.70;5.70;;;4.80;99.90;;;;;;4951054;28;20058;-94
2022/04/04 05:48:30;;;;;;;7.72;3.25;;;4.70;99.90;;;;;;4922102;29;20141;-92
2022/04/04 07:12:22;;;;;;;1.45;1.13;;;4.70;99.90;;;;;;5117364;27;1424552;-67
2022/04/04 07:14:48;;;;;;;2.00;1.58;;;4.70;99.90;;;;;;5144018;27;20035;-67
2022/04/04 07:17:14;;;;;;;2.38;1.10;;;4.70;99.90;;;;;;5125385;27;20088;-66
2022/04/04 07:19:40;;;;;;;1.42;1.30;;;4.80;99.90;;;;;;5127481;27;20099;-68
2022/04/04 07:22:05;;;;;;;2.63;1.52;;;4.70;99.90;;;;;;5140818;27;20050;-67
2022/04/04 07:24:31;;;;;;;2.58;1.38;;;4.80;99.90;;;;;;5116018;27;20474;-67
2022/04/04 07:26:57;;;;;;;1.60;1.20;;;4.80;99.90;;;;;;5124448;27;20493;-67
2022/04/04 07:29:23;;;;;;;1.30;1.23;;;4.80;99.90;;;;;;5126458;27;20134;-67
2022/04/04 07:31:49;;;;;;;5.72;2.28;;;4.80;99.90;;;;;;5124177;27;20070;-67
2022/04/04 07:34:14;;;;;;;2.20;1.50;;;4.90;99.90;;;;;;5126229;27;20497;-68
2022/04/04 07:36:41;;;;;;;4.35;1.67;;;4.80;99.90;;;;;;5109390;27;20126;-67
2022/04/04 07:39:07;;;;;;;1.58;1.10;;;4.90;99.90;;;;;;5126146;27;20045;-68
2022/04/04 07:41:34;;;;;;;3.17;1.45;;;4.90;99.90;;;;;;5126874;27;20525;-67
2022/04/04 07:43:59;;;;;;;6.15;2.25;;;4.90;99.90;;;;;;5125554;27;20031;-68
2022/04/04 07:46:26;;;;;;;6.70;2.55;;;4.90;99.90;;;;;;5126302;27;20049;-67
2022/04/04 07:48:55;;;;;;;1.95;1.60;;;5.00;99.90;;;;;;5107093;27;20564;-71
2022/04/04 07:51:22;;;;;;;3.35;1.42;;;5.00;99.90;;;;;;5126130;27;20053;-67
2022/04/04 07:53:48;;;;;;;5.72;2.10;;;5.00;99.90;;;;;;5126350;27;20114;-67
2022/04/04 07:56:14;;;;;;;4.15;1.80;;;5.00;99.90;;;;;;5125446;27;20054;-67
2022/04/04 07:58:42;;;;;;;3.00;2.47;;;5.10;99.90;;;;;;5124979;27;20053;-68
2022/04/04 08:01:08;;;;;;;6.80;2.83;;;5.10;99.90;;;;;;5121771;27;20051;-67
2022/04/04 08:03:34;;;;;;;5.97;1.63;;;5.10;99.90;;;;;;5124999;27;20043;-67
2022/04/04 08:06:01;;;;;;;5.32;2.63;;;5.10;99.90;;;;;;5121681;27;20051;-67
2022/04/04 08:08:26;;;;;;;3.67;2.42;;;5.10;99.90;;;;;;5108108;27;20035;-67
2022/04/04 08:10:52;;;;;;;3.97;1.92;;;5.20;99.90;;;;;;5097469;27;20050;-67
2022/04/04 08:13:18;;;;;;;7.28;2.85;;;5.20;99.90;;;;;;5106364;27;20413;-67
2022/04/04 08:15:45;;;;;;;2.67;1.83;;;5.20;99.90;;;;;;5124347;27;20050;-67
2022/04/04 08:18:11;;;;;;;3.05;2.03;;;5.30;99.90;;;;;;5123735;27;20062;-67
2022/04/04 08:20:38;;;;;;;3.70;2.88;;;5.20;99.90;;;;;;5106297;27;20039;-67
2022/04/04 08:23:03;;;;;;;2.55;2.33;;;5.20;99.90;;;;;;5110445;27;20062;-68
2022/04/04 08:25:30;;;;;;;2.13;1.95;;;5.30;99.90;;;;;;5092935;27;20043;-67
2022/04/04 08:27:56;;;;;;;2.72;2.20;;;5.30;99.90;;;;;;5099703;28;20499;-67
2022/04/04 08:30:21;;;;;;;5.53;1.85;;;5.30;99.90;;;;;;5104202;27;20047;-66
2022/04/04 08:32:48;;;;;;;1.85;1.48;;;5.30;99.90;;;;;;5105471;27;20047;-67
2022/04/04 08:35:15;;;;;;;4.88;1.73;;;5.40;99.90;;;;;;5126816;27;20074;-66
2022/04/04 08:37:43;;;;;;;1.98;1.40;;;5.40;99.90;;;;;;5111040;27;20138;-66
2022/04/04 08:40:11;;;;;;;3.20;1.63;;;5.40;99.90;;;;;;5127510;27;20047;-66
2022/04/04 08:42:38;;;;;;;2.47;1.17;;;5.40;99.90;;;;;;5102125;27;20514;-66
2022/04/04 08:45:06;;;;;;;1.27;1.17;;;5.40;99.90;;;;;;5106813;27;20039;-66
2022/04/04 08:47:33;;;;;;;4.85;1.77;;;5.50;99.90;;;;;;5088111;27;20497;-66
2022/04/04 08:50:00;;;;;;;2.92;1.17;;;5.60;99.90;;;;;;5127277;27;20047;-66
2022/04/04 08:52:27;;;;;;;2.22;1.45;;;5.50;99.90;;;;;;5108408;27;20590;-66
2022/04/04 08:54:53;;;;;;;1.83;1.30;;;5.60;99.90;;;;;;5126779;27;20472;-66
2022/04/04 08:57:19;;;;;;;5.18;1.42;;;5.60;99.90;;;;;;5103602;28;20054;-66
2022/04/04 08:59:45;;;;;;;3.35;1.15;;;5.70;99.90;;;;;;5109368;28;20102;-66
2022/04/04 09:02:12;;;;;;;2.25;1.10;;;5.70;99.90;;;;;;5104699;28;20477;-66
2022/04/04 09:04:39;;;;;;;4.55;1.52;;;5.80;99.90;;;;;;5090151;27;20133;-66
2022/04/04 09:07:07;;;;;;;1.05;0.98;;;5.80;99.90;;;;;;5122169;27;20051;-66
2022/04/04 09:09:49;;;;;;;1.20;0.98;;;5.80;99.90;;;;;;5091225;27;20099;-66
2022/04/04 09:12:15;;;;;;;1.30;0.98;;;5.80;99.90;;;;;;5126580;27;20530;-66
2022/04/04 09:14:45;;;;;;;2.80;1.27;;;5.90;99.90;;;;;;5105535;27;20094;-67
2022/04/04 09:17:12;;;;;;;3.00;1.23;;;5.90;99.90;;;;;;5101745;27;20104;-66
2022/04/04 09:19:39;;;;;;;2.33;1.10;;;5.90;99.90;;;;;;5107367;27;20107;-66
2022/04/04 09:22:10;;;;;;;3.88;1.15;;;6.00;99.90;;;;;;5110118;27;20253;-66
2022/04/04 09:25:02;;;;;;;1.70;0.77;;;6.00;99.90;;;;;;5109432;27;20047;-66
2022/04/04 09:27:34;;;;;;;0.90;0.90;;;6.10;99.90;;;;;;5102260;27;20054;-66
2022/04/04 09:30:07;;;;;;;1.92;0.98;;;6.10;99.90;;;;;;5109594;27;20054;-66
2022/04/04 09:32:45;;;;;;;1.98;0.55;;;6.20;99.90;;;;;;5104665;27;20082;-66
2022/04/04 09:35:18;;;;;;;4.18;1.00;;;6.20;99.90;;;;;;5105326;27;20134;-66
2022/04/04 09:37:46;;;;;;;1.13;0.70;;;6.20;99.90;;;;;;5105054;28;20043;-66
2022/04/04 09:40:17;;;;;;;1.25;0.70;;;6.30;99.90;;;;;;5102950;27;20047;-65
2022/04/04 09:42:57;;;;;;;0.82;0.65;;;6.30;99.90;;;;;;5108954;27;20042;-66
2022/04/04 09:45:25;;;;;;;3.75;0.52;;;6.30;99.90;;;;;;5121100;27;20126;-66
2022/04/04 09:47:58;;;;;;;1.45;0.65;;;6.40;99.90;;;;;;5107157;27;20046;-67
2022/04/04 09:50:42;;;;;;;0.88;0.88;;;6.40;99.90;;;;;;5125898;27;20047;-66
2022/04/04 09:53:16;;;;;;;2.03;0.82;;;6.50;99.90;;;;;;5107990;27;20127;-66
2022/04/04 09:55:52;;;;;;;1.95;0.65;;;6.50;99.90;;;;;;5108096;27;20075;-66
2022/04/04 09:58:21;;;;;;;1.83;0.73;;;6.50;99.90;;;;;;5119911;27;20044;-66
2022/04/04 10:00:50;;;;;;;1.88;1.00;;;6.50;99.90;;;;;;5091886;27;20557;-66
2022/04/04 10:03:17;;;;;;;2.53;0.95;;;6.50;99.90;;;;;;5073379;27;20040;-66
2022/04/04 10:05:45;;;;;;;2.15;0.93;;;6.60;99.90;;;;;;5107484;27;20087;-66
2022/04/04 10:08:17;;;;;;;1.27;0.68;;;6.60;99.90;;;;;;5090172;27;20040;-66
2022/04/04 10:10:50;;;;;;;0.60;0.60;;;6.60;99.90;;;;;;5125118;27;20062;-67
2022/04/04 10:13:17;;;;;;;1.30;0.60;;;6.60;99.90;;;;;;5090329;27;20131;-67
2022/04/04 10:15:43;;;;;;;7.88;1.52;;;6.60;99.90;;;;;;5087367;28;20032;-66
2022/04/04 10:18:09;;;;;;;1.48;0.93;;;6.60;99.90;;;;;;5095881;27;20087;-66
2022/04/04 10:20:36;;;;;;;0.70;0.70;;;6.60;99.90;;;;;;5103583;27;20052;-66
2022/04/04 10:23:04;;;;;;;0.63;0.57;;;6.70;99.90;;;;;;5108516;27;20092;-66
2022/04/04 10:25:32;;;;;;;4.13;0.95;;;6.70;99.90;;;;;;5095225;28;20134;-66
2022/04/04 10:28:01;;;;;;;0.50;0.50;;;6.70;99.90;;;;;;5082001;28;20065;-66
2022/04/04 10:30:49;;;;;;;1.50;0.90;;;6.80;99.90;;;;;;5088304;28;20060;-66
2022/04/04 10:33:19;;;;;;;1.73;0.70;;;6.90;99.90;;;;;;5089224;28;20066;-66
2022/04/04 10:36:08;;;;;;;0.55;0.55;;;6.90;99.90;;;;;;5123073;27;20050;-66
2022/04/04 10:38:45;;;;;;;1.90;0.50;;;6.90;99.90;;;;;;5099845;27;20051;-66
2022/04/04 10:41:14;;;;;;;0.73;0.63;;;6.90;99.90;;;;;;5107017;27;20127;-66
2022/04/04 10:43:51;;;;;;;1.02;0.70;;;6.90;99.90;;;;;;5076857;28;20032;-66
2022/04/04 10:46:19;;;;;;;1.85;1.27;;;6.90;99.90;;;;;;5072595;27;20373;-67
2022/04/04 10:49:04;;;;;;;1.38;0.32;;;6.90;99.90;;;;;;5096590;28;20043;-66
2022/04/04 10:51:37;;;;;;;2.40;0.70;;;6.90;99.90;;;;;;5072228;28;20051;-66
2022/04/04 10:54:10;;;;;;;0.77;0.52;;;6.90;99.90;;;;;;5107941;27;20039;-67
2022/04/04 10:56:41;;;;;;;2.20;0.85;;;6.90;99.90;;;;;;5104107;27;20047;-66
2022/04/04 10:59:16;;;;;;;1.73;0.80;;;6.90;99.90;;;;;;5125306;27;20043;-67
2022/04/04 11:01:54;;;;;;;0.85;0.47;;;7.00;99.90;;;;;;5102718;27;20038;-67
2022/04/04 11:04:29;;;;;;;1.08;0.60;;;7.10;99.90;;;;;;5125562;27;20074;-66
2022/04/04 11:10:06;;;;;;;3.75;0.80;;;7.10;99.90;;;;;;5104300;28;20039;-66
2022/04/04 11:12:52;;;;;;;;;;;7.10;99.90;;;;;;5105650;28;20047;-67
2022/04/04 11:15:42;;;;;;;1.33;0.32;;;7.10;99.90;;;;;;5103965;28;20554;-67
2022/04/04 11:18:10;;;;;;;0.55;0.43;;;7.20;99.90;;;;;;5123852;28;20079;-66
2022/04/04 11:20:43;;;;;;;0.30;0.30;;;7.20;99.90;;;;;;5103756;28;20452;-67
2022/04/04 11:23:10;;;;;;;0.30;0.30;;;7.20;99.90;;;;;;5107173;28;20054;-67
2022/04/04 11:25:48;;;;;;;0.75;0.45;;;7.20;99.90;;;;;;5072707;28;20092;-67
2022/04/04 11:28:15;;;;;;;0.70;0.32;;;7.20;99.90;;;;;;5105180;28;20555;-67
2022/04/04 11:30:41;;;;;;;7.88;0.47;;;7.20;99.90;;;;;;5099818;28;20142;-67
2022/04/04 11:33:11;;;;;;;1.10;0.40;;;7.20;99.90;;;;;;5098990;28;20043;-67
2022/04/04 11:35:36;;;;;;;0.57;0.50;;;7.30;99.90;;;;;;5088580;28;20134;-67
2022/04/04 11:38:11;;;;;;;0.20;0.20;;;7.30;99.90;;;;;;5088445;28;20130;-67
2022/04/04 11:40:39;;;;;;;0.57;0.30;;;7.30;99.90;;;;;;5105277;28;20047;-67
2022/04/04 11:43:09;;;;;;;0.90;0.30;;;7.40;99.90;;;;;;5124643;28;20550;-67
2022/04/04 11:45:37;;;;;;;0.47;0.30;;;7.40;99.90;;;;;;5103626;28;20433;-67
2022/04/04 11:48:07;;;;;;;0.20;0.20;;;7.40;99.90;;;;;;5107090;28;20358;-67
2022/04/04 11:50:34;;;;;;;;;;;7.40;99.90;;;;;;5104065;28;20043;-67
2022/04/04 11:53:08;;;;;;;1.27;0.40;;;7.40;99.90;;;;;;5101759;28;19919;-67
2022/04/04 11:55:36;;;;;;;0.63;0.25;;;7.50;99.90;;;;;;5123021;28;20058;-67
2022/04/04 11:58:12;;;;;;;0.20;0.10;;;7.50;99.90;;;;;;5128950;27;20257;-67
2022/04/04 12:00:44;;;;;;;1.48;0.28;;;7.50;99.90;;;;;;5094283;27;20038;-67
2022/04/04 12:03:12;;;;;;;0.40;0.20;;;7.60;99.90;;;;;;5104737;27;20099;-67
2022/04/04 12:05:43;;;;;;;0.08;0.08;;;7.60;99.90;;;;;;5110242;27;20551;-67
2022/04/04 12:08:10;;;;;;;1.67;0.40;;;7.70;99.90;;;;;;5105748;27;20061;-67
2022/04/04 12:10:37;;;;;;;0.20;0.10;;;7.70;99.90;;;;;;5106864;28;20044;-67
2022/04/04 12:13:09;;;;;;;0.20;0.20;;;7.70;99.90;;;;;;5096579;27;20134;-67
2022/04/04 12:15:37;;;;;;;0.40;0.22;;;7.70;99.90;;;;;;5109691;27;20443;-67
2022/04/04 12:18:05;;;;;;;0.00;0.00;;;7.70;99.90;;;;;;5112020;27;20056;-66
2022/04/04 12:20:45;;;;;;;0.30;0.17;;;7.70;99.90;;;;;;5109676;27;20424;-66
2022/04/04 12:25:59;;;;;;;3.58;0.30;;;7.80;99.90;;;;;;5127969;27;20051;-67
2022/04/04 12:28:36;;;;;;;0.00;0.00;;;7.90;99.90;;;;;;5110934;27;20039;-66
2022/04/04 12:31:13;;;;;;;0.20;0.20;;;7.90;99.90;;;;;;5128431;27;20047;-66
2022/04/04 12:33:39;;;;;;;0.10;0.10;;;7.90;99.90;;;;;;5127516;27;20046;-66
2022/04/04 12:36:05;;;;;;;1.08;0.20;;;8.00;99.90;;;;;;5110004;27;20061;-66
2022/04/04 12:38:37;;;;;;;0.20;0.20;;;8.00;99.90;;;;;;5109570;27;20043;-66
2022/04/04 12:41:12;;;;;;;1.95;0.25;;;8.00;99.90;;;;;;5130451;27;20055;-66
2022/04/04 12:43:40;;;;;;;0.00;0.00;;;8.00;99.90;;;;;;5109992;27;20585;-66
2022/04/04 12:46:23;;;;;;;0.00;0.00;;;8.10;99.90;;;;;;5108588;27;20046;-67
2022/04/04 12:48:49;;;;;;;0.10;0.00;;;8.10;99.90;;;;;;5113468;27;20063;-66
2022/04/04 12:51:29;;;;;;;0.10;0.10;;;8.10;99.90;;;;;;5084300;28;20047;-66
2022/04/04 12:53:55;;;;;;;;;;;8.20;99.90;;;;;;5091690;28;20109;-67
2022/04/04 12:56:21;;;;;;;1.08;0.40;;;8.20;99.90;;;;;;5103693;27;19926;-66
2022/04/04 12:59:05;;;;;;;0.17;0.17;;;8.20;99.90;;;;;;5108250;27;20353;-67
2022/04/04 13:01:31;;;;;;;0.00;0.00;;;8.20;99.90;;;;;;5109248;27;20047;-66
2022/04/04 13:03:57;;;;;;;0.00;0.00;;;8.20;99.90;;;;;;5103849;27;20411;-67
2022/04/04 13:06:28;;;;;;;0.03;0.00;;;8.30;99.90;;;;;;5111002;27;20043;-67
2022/04/04 13:08:59;;;;;;;0.10;0.00;;;8.30;99.90;;;;;;5126456;27;20077;-65
2022/04/04 13:11:26;;;;;;;0.15;0.10;;;8.40;99.90;;;;;;5110404;27;20062;-66
2022/04/04 13:14:07;;;;;;;0.32;0.10;;;8.40;99.90;;;;;;5127996;27;20043;-66
2022/04/04 13:16:37;;;;;;;0.52;0.20;;;8.40;99.90;;;;;;5109109;27;20051;-66
2022/04/04 13:19:08;;;;;;;0.10;0.10;;;8.40;99.90;;;;;;5108768;27;20039;-66
2022/04/04 13:21:35;;;;;;;1.02;0.00;;;8.50;99.90;;;;;;5127199;27;20408;-67
2022/04/04 13:24:03;;;;;;;0.00;0.00;;;8.60;99.90;;;;;;5108476;27;20039;-67
2022/04/04 13:26:29;;;;;;;0.10;0.10;;;8.60;99.90;;;;;;5116609;27;20032;-66
2022/04/04 13:28:56;;;;;;;0.00;0.00;;;8.60;99.90;;;;;;5103224;27;20043;-67
2022/04/04 13:31:22;;;;;;;0.20;0.15;;;8.60;99.90;;;;;;5125807;27;20484;-66
2022/04/04 13:33:50;;;;;;;0.10;0.10;;;8.70;99.90;;;;;;5075824;28;20031;-67
2022/04/04 13:36:17;;;;;;;0.10;0.10;;;8.70;99.90;;;;;;5089876;27;20055;-67
2022/04/04 13:38:43;;;;;;;0.00;0.00;;;8.70;99.90;;;;;;5105497;28;20581;-66
2022/04/04 13:41:10;;;;;;;0.00;0.00;;;8.70;99.90;;;;;;5090278;28;20050;-67
2022/04/04 13:43:36;;;;;;;0.00;0.00;;;8.80;99.90;;;;;;5087869;28;20084;-68
2022/04/04 13:46:03;;;;;;;0.17;0.17;;;8.80;99.90;;;;;;5073305;28;20047;-66
2022/04/04 13:48:29;;;;;;;0.00;0.00;;;8.80;99.90;;;;;;5106161;28;20497;-67
2022/04/04 13:50:57;;;;;;;0.35;0.30;;;8.90;99.90;;;;;;5101430;27;20094;-67
2022/04/04 13:53:23;;;;;;;0.63;0.30;;;8.80;99.90;;;;;;5109468;27;20043;-69
2022/04/04 13:55:49;;;;;;;0.85;0.60;;;8.90;99.90;;;;;;5106955;27;20066;-67
2022/04/04 13:58:15;;;;;;;5.10;1.50;;;8.90;99.90;;;;;;5108271;27;20459;-67
2022/04/04 14:00:41;;;;;;;2.08;0.40;;;9.00;99.90;;;;;;5105025;27;20134;-66
2022/04/04 14:03:10;;;;;;;1.15;0.68;;;9.00;99.90;;;;;;5087524;27;20059;-66
2022/04/04 14:05:36;;;;;;;0.43;0.30;;;9.10;99.90;;;;;;5090705;27;20039;-66
2022/04/04 14:08:03;;;;;;;2.45;1.20;;;9.10;99.90;;;;;;5109230;27;20596;-66
2022/04/04 14:10:31;;;;;;;1.02;0.50;;;9.20;99.90;;;;;;5112503;27;20101;-66
2022/04/04 14:12:57;;;;;;;3.10;1.05;;;9.20;99.90;;;;;;5104206;28;20172;-67
2022/04/04 14:15:23;;;;;;;5.75;2.53;;;9.20;99.90;;;;;;5099204;27;20068;-66
2022/04/04 14:17:49;;;;;;;3.80;2.10;;;9.20;99.90;;;;;;5107112;27;20038;-66
2022/04/04 14:20:16;;;;;;;15.15;3.78;;;9.20;99.90;;;;;;5126319;27;20054;-67
2022/04/04 14:22:42;;;;;;;9.20;3.15;;;9.20;99.90;;;;;;5122786;27;20110;-65
2022/04/04 14:25:08;;;;;;;14.63;3.92;;;9.20;99.90;;;;;;5077033;28;20460;-66
2022/04/04 14:27:34;;;;;;;19.30;5.75;;;9.20;99.90;;;;;;5107625;27;20047;-66
2022/04/04 14:29:59;;;;;;;17.58;5.40;;;9.20;99.90;;;;;;5090603;27;20396;-66
2022/04/04 14:32:25;;;;;;;18.92;4.88;;;9.30;99.90;;;;;;5105456;27;20047;-66
2022/04/04 14:34:51;;;;;;;29.20;7.18;;;9.30;99.90;;;;;;5078024;28;20530;-66
2022/04/04 14:37:17;;;;;;;28.80;6.45;;;9.30;99.90;;;;;;5099959;27;20053;-66
2022/04/04 14:39:45;;;;;;;29.40;6.22;;;9.40;99.90;;;;;;5104998;27;20039;-66
2022/04/04 14:42:13;;;;;;;25.67;5.82;;;9.50;99.90;;;;;;5074488;27;20058;-66
2022/04/04 14:44:41;;;;;;;38.45;7.55;;;9.40;99.90;;;;;;5106536;27;20066;-67
2022/04/04 14:47:07;;;;;;;33.97;6.88;;;9.50;99.90;;;;;;5105612;27;20500;-66
2022/04/04 14:49:33;;;;;;;34.45;7.43;;;9.50;99.90;;;;;;5079315;28;20394;-67
2022/04/04 14:51:59;;;;;;;34.53;6.18;;;9.60;99.90;;;;;;5085970;27;20047;-67
2022/04/04 14:54:25;;;;;;;28.10;5.72;;;9.70;99.90;;;;;;5090023;28;20051;-67
2022/04/04 14:56:52;;;;;;;26.45;5.85;;;9.70;99.90;;;;;;5115139;27;20788;-67
2022/04/04 14:59:19;;;;;;;24.65;5.50;;;9.70;99.90;;;;;;5091565;27;20492;-67
2022/04/04 15:01:46;;;;;;;32.47;5.47;;;9.70;99.90;;;;;;5102528;28;20047;-67
2022/04/04 15:04:12;;;;;;;28.52;5.85;;;9.60;99.90;;;;;;5107038;27;20099;-67
2022/04/04 15:06:38;;;;;;;25.52;5.43;;;9.70;99.90;;;;;;5108080;28;20090;-66
2022/04/04 15:09:05;;;;;;;36.38;7.28;;;9.70;99.90;;;;;;5108744;28;20055;-66
2022/04/04 15:11:33;;;;;;;30.08;7.57;;;9.70;99.90;;;;;;5087940;28;20108;-67
2022/04/04 15:13:59;;;;;;;31.77;7.78;;;9.70;99.90;;;;;;5100463;28;20055;-67
2022/04/04 15:16:24;;;;;;;26.20;7.32;;;9.60;99.90;;;;;;5086275;28;20048;-66
2022/04/04 15:18:51;;;;;;;29.05;6.30;;;9.60;99.90;;;;;;5066622;28;20101;-67
2022/04/04 15:21:18;;;;;;;33.88;8.13;;;9.60;99.90;;;;;;5057854;28;20036;-67
2022/04/04 15:23:46;;;;;;;29.67;7.38;;;9.60;99.90;;;;;;5091520;28;20458;-66
2022/04/04 15:26:12;;;;;;;31.80;6.97;;;9.60;99.90;;;;;;5081686;28;20058;-67
2022/04/04 15:28:38;;;;;;;28.23;6.32;;;9.60;99.90;;;;;;5085155;28;20048;-67
2022/04/04 15:31:05;;;;;;;25.75;5.75;;;9.60;99.90;;;;;;5098427;28;20046;-67
2022/04/04 15:33:31;;;;;;;27.90;5.13;;;9.70;99.90;;;;;;5100199;28;20461;-67
2022/04/04 15:35:58;;;;;;;13.52;2.63;;;9.70;99.90;;;;;;5101542;28;20072;-68
2022/04/04 15:38:24;;;;;;;30.75;5.35;;;9.70;99.90;;;;;;5085627;28;20093;-67
2022/04/04 15:40:50;;;;;;;29.48;5.93;;;9.70;99.90;;;;;;5084129;28;20044;-67
2022/04/04 15:43:16;;;;;;;37.70;6.93;;;9.70;99.90;;;;;;5105371;28;20116;-67
2022/04/04 15:45:45;;;;;;;31.20;5.00;;;9.60;99.90;;;;;;5104196;28;20050;-67
2022/04/04 15:48:12;;;;;;;38.55;5.22;;;9.70;99.90;;;;;;5104409;28;20046;-67
2022/04/04 15:50:39;;;;;;;33.95;7.20;;;9.60;99.90;;;;;;5099591;28;20075;-67
2022/04/04 15:53:06;;;;;;;35.65;6.10;;;9.60;99.90;;;;;;5085395;28;20036;-67
2022/04/04 15:55:32;;;;;;;34.80;6.47;;;9.60;99.90;;;;;;5086678;28;20083;-67
2022/04/04 15:58:02;;;;;;;31.83;6.30;;;9.50;99.90;;;;;;5089288;28;20128;-67
2022/04/04 16:00:31;;;;;;;34.28;6.28;;;9.50;99.90;;;;;;5107039;28;20086;-67
2022/04/04 16:02:57;;;;;;;36.50;6.25;;;9.50;99.90;;;;;;5085092;28;20054;-67
2022/04/04 16:05:23;;;;;;;35.08;6.70;;;9.50;99.90;;;;;;5106223;28;20039;-68
2022/04/04 16:07:49;;;;;;;28.10;6.80;;;9.40;99.90;;;;;;5105869;28;20446;-71
2022/04/04 16:10:19;;;;;;;33.45;6.00;;;9.40;99.90;;;;;;5104317;28;20043;-69
2022/04/04 16:12:46;;;;;;;31.65;6.53;;;9.50;99.90;;;;;;5105850;28;20090;-69
2022/04/04 16:15:11;;;;;;;34.78;6.38;;;9.40;99.90;;;;;;5088992;28;20047;-69
2022/04/04 16:17:37;;;;;;;39.33;7.35;;;9.40;99.90;;;;;;5089158;28;20043;-70
2022/04/04 16:20:03;;;;;;;33.83;6.25;;;9.40;99.90;;;;;;5105667;28;20473;-69
2022/04/04 16:22:29;;;;;;;29.48;6.75;;;9.40;99.90;;;;;;5105244;28;20595;-69
2022/04/04 16:24:55;;;;;;;35.40;7.80;;;9.40;99.90;;;;;;5103538;28;20044;-69
2022/04/04 16:27:22;;;;;;;30.70;8.45;;;9.40;99.90;;;;;;5106190;28;20073;-68
2022/04/04 16:29:49;;;;;;;37.08;8.88;;;9.40;99.90;;;;;;5089586;28;20332;-69
2022/04/04 16:32:15;;;;;;;34.50;7.55;;;9.30;99.90;;;;;;5102206;28;20132;-69
2022/04/04 16:34:40;;;;;;;33.50;6.93;;;9.30;99.90;;;;;;5107260;28;20507;-69
2022/04/04 16:37:06;;;;;;;37.05;8.50;;;9.20;99.90;;;;;;5104203;28;20439;-69
2022/04/04 16:39:32;;;;;;;35.70;7.25;;;9.20;99.90;;;;;;5107284;28;20047;-68
2022/04/04 16:41:58;;;;;;;37.78;9.05;;;9.20;99.90;;;;;;5105114;28;20044;-68
2022/04/04 16:44:24;;;;;;;30.40;6.93;;;9.10;99.90;;;;;;5105983;28;20060;-68
2022/04/04 16:46:51;;;;;;;38.60;6.75;;;9.10;99.90;;;;;;5090248;28;20453;-69
2022/04/04 16:49:18;;;;;;;31.77;6.55;;;9.00;99.90;;;;;;5106299;28;20088;-68
2022/04/04 16:51:44;;;;;;;31.90;5.95;;;9.00;99.90;;;;;;5085179;28;20502;-68
2022/04/04 16:54:09;;;;;;;23.17;5.47;;;9.00;99.90;;;;;;5103759;28;20096;-69
2022/04/04 16:56:35;;;;;;;25.38;5.35;;;8.90;99.90;;;;;;5106046;28;20054;-68
2022/04/04 16:59:01;;;;;;;17.77;4.53;;;8.80;99.90;;;;;;5103410;28;20048;-66
2022/04/04 17:01:27;;;;;;;20.42;5.30;;;8.80;99.90;;;;;;5068487;28;20039;-67
2022/04/04 17:03:53;;;;;;;30.80;5.40;;;8.70;99.90;;;;;;5104601;28;20038;-66
2022/04/04 17:06:19;;;;;;;34.20;6.22;;;8.70;99.90;;;;;;5083370;28;20044;-66
2022/04/04 17:08:44;;;;;;;37.38;6.45;;;8.70;99.90;;;;;;5106145;28;20126;-66
2022/04/04 17:11:10;;;;;;;36.58;5.97;;;8.70;99.90;;;;;;5084249;27;20405;-66
2022/04/04 17:13:36;;;;;;;34.47;6.18;;;8.70;99.90;;;;;;5128696;27;20100;-67
2022/04/04 17:16:02;;;;;;;35.70;7.35;;;8.70;99.90;;;;;;5084519;28;20047;-67
2022/04/04 17:18:27;;;;;;;36.13;7.53;;;8.70;99.90;;;;;;5072014;28;20048;-67
2022/04/04 17:20:53;;;;;;;34.58;5.47;;;8.60;99.90;;;;;;5107725;27;20039;-67
2022/04/04 17:23:19;;;;;;;46.10;9.80;;;8.60;99.90;;;;;;5072164;28;20044;-67
2022/04/04 17:25:46;;;;;;;39.65;7.07;;;8.60;99.90;;;;;;5122151;27;20046;-67
2022/04/04 17:28:13;;;;;;;33.22;6.35;;;8.60;99.90;;;;;;5107322;27;20078;-67
2022/04/04 17:30:39;;;;;;;43.72;7.63;;;8.50;99.90;;;;;;5090616;27;20054;-67
2022/04/04 17:33:05;;;;;;;30.02;6.50;;;8.60;99.90;;;;;;5100275;28;20044;-66
2022/04/04 17:35:31;;;;;;;41.20;8.48;;;8.50;99.90;;;;;;5106280;27;20071;-66
2022/04/04 17:37:56;;;;;;;42.03;7.05;;;8.50;99.90;;;;;;5105913;27;20086;-66
2022/04/04 17:40:23;;;;;;;43.83;8.18;;;8.50;99.90;;;;;;5093442;27;20393;-66
2022/04/04 17:42:49;;;;;;;39.22;7.60;;;8.40;99.90;;;;;;5108779;27;20043;-67
2022/04/04 17:45:15;;;;;;;37.22;6.68;;;8.40;99.90;;;;;;5089878;27;20043;-67
2022/04/04 17:47:43;;;;;;;35.60;7.93;;;8.40;99.90;;;;;;5093599;28;20048;-66
2022/04/04 17:50:14;;;;;;;39.65;7.80;;;8.40;99.90;;;;;;5088278;28;20381;-66
2022/04/04 17:52:41;;;;;;;41.67;7.75;;;8.40;99.90;;;;;;5090445;27;20043;-67
2022/04/04 17:55:07;;;;;;;40.20;7.38;;;8.30;99.90;;;;;;5076619;27;20051;-67